createdAt,value
2023-02-17T00:00:55.467Z,8.50
2023-02-17T00:03:24.915Z,8.56
2023-02-17T00:05:53.230Z,8.56
2023-02-17T00:08:21.187Z,8.52
2023-02-17T00:10:58.747Z,8.51
2023-02-17T00:13:26.999Z,8.55
2023-02-17T00:15:55.043Z,8.55
2023-02-17T00:18:24.422Z,8.55
2023-02-17T00:20:52.413Z,8.61
2023-02-17T00:23:20.344Z,8.59
2023-02-17T00:25:48.265Z,8.71
2023-02-17T00:28:16.531Z,8.73
2023-02-17T00:30:44.505Z,8.75
2023-02-17T00:33:12.471Z,8.69
2023-02-17T00:35:42.694Z,8.82
2023-02-17T00:38:10.619Z,8.73
2023-02-17T00:40:39.007Z,8.84
2023-02-17T00:43:07.262Z,8.85
2023-02-17T00:45:35.267Z,8.90
2023-02-17T00:48:03.183Z,8.79
2023-02-17T00:50:31.125Z,8.95
2023-02-17T00:53:00.710Z,8.98
2023-02-17T00:55:28.599Z,9.00
2023-02-17T00:57:56.771Z,9.01
2023-02-17T01:00:24.968Z,8.97
2023-02-17T01:02:52.927Z,9.04
2023-02-17T01:05:20.931Z,9.06
2023-02-17T01:07:48.979Z,8.98
2023-02-17T01:10:19.701Z,9.05
2023-02-17T01:12:47.762Z,8.99
2023-02-17T01:15:15.722Z,8.99
2023-02-17T01:17:43.686Z,9.04
2023-02-17T01:20:12.132Z,9.10
2023-02-17T01:22:40.838Z,9.07
2023-02-17T01:25:09.047Z,8.98
2023-02-17T01:27:38.644Z,9.09
2023-02-17T01:30:07.678Z,9.05
2023-02-17T01:32:35.625Z,9.04
2023-02-17T01:35:03.698Z,9.03
2023-02-17T01:37:33.433Z,9.12
2023-02-17T01:40:01.452Z,9.10
2023-02-17T01:42:29.334Z,9.19
2023-02-17T01:45:39.984Z,9.10
2023-02-17T01:48:11.235Z,9.24
2023-02-17T01:50:41.977Z,9.29
2023-02-17T01:53:10.340Z,9.14
2023-02-17T01:55:38.621Z,9.19
2023-02-17T01:58:06.621Z,9.24
2023-02-17T02:00:34.781Z,9.23
2023-02-17T02:03:03.100Z,9.26
2023-02-17T02:05:32.529Z,9.28
2023-02-17T02:08:00.470Z,9.30
2023-02-17T02:10:28.345Z,9.36
2023-02-17T02:12:56.240Z,9.45
2023-02-17T02:15:24.881Z,9.39
2023-02-17T02:18:01.495Z,9.31
2023-02-17T02:21:02.597Z,9.37
2023-02-17T02:24:00.809Z,9.35
2023-02-17T02:27:04.021Z,9.34
2023-02-17T02:29:55.785Z,9.39
2023-02-17T02:32:40.767Z,9.35
2023-02-17T02:35:10.303Z,9.45
2023-02-17T02:37:40.775Z,9.52
2023-02-17T02:40:09.758Z,9.39
2023-02-17T02:42:37.672Z,9.45
2023-02-17T02:45:07.127Z,9.57
2023-02-17T02:47:47.871Z,9.46
2023-02-17T02:50:17.579Z,9.54
2023-02-17T02:52:50.364Z,9.55
2023-02-17T02:55:20.420Z,9.38
2023-02-17T02:57:51.459Z,9.58
2023-02-17T03:00:21.812Z,9.49
2023-02-17T03:02:53.436Z,9.65
2023-02-17T03:05:25.869Z,9.49
2023-02-17T03:07:56.658Z,9.47
2023-02-17T03:10:24.825Z,9.41
2023-02-17T03:12:52.694Z,9.42
2023-02-17T03:15:22.369Z,9.41
2023-02-17T03:17:51.905Z,9.49
2023-02-17T03:20:19.962Z,9.64
2023-02-17T03:22:48.336Z,9.53
2023-02-17T03:25:16.421Z,9.46
2023-02-17T03:27:44.460Z,9.57
2023-02-17T03:30:14.325Z,9.57
2023-02-17T03:32:43.872Z,9.54
2023-02-17T03:35:13.254Z,9.52
2023-02-17T03:37:41.160Z,9.44
2023-02-17T03:40:09.819Z,9.51
2023-02-17T03:42:37.744Z,9.46
2023-02-17T03:45:06.244Z,9.50
2023-02-17T03:47:34.593Z,9.55
2023-02-17T03:50:02.668Z,9.51
2023-02-17T03:52:31.944Z,9.45
2023-02-17T03:54:59.844Z,9.59
2023-02-17T03:57:27.779Z,9.49
2023-02-17T03:59:55.721Z,9.46
2023-02-17T04:02:24.026Z,9.52
2023-02-17T04:04:51.916Z,9.67
2023-02-17T04:07:19.826Z,9.56
2023-02-17T04:09:49.297Z,9.70
2023-02-17T04:12:17.180Z,9.65
2023-02-17T04:14:45.056Z,9.62
2023-02-17T04:17:12.937Z,9.65
2023-02-17T04:19:41.109Z,9.69
2023-02-17T04:22:09.088Z,9.68
2023-02-17T04:24:37.332Z,9.63
2023-02-17T04:27:06.807Z,9.75
2023-02-17T04:29:35.023Z,9.61
2023-02-17T04:32:03.166Z,9.73
2023-02-17T04:34:31.165Z,9.71
2023-02-17T04:36:59.718Z,9.68
2023-02-17T04:39:27.640Z,9.60
2023-02-17T04:41:55.730Z,9.75
2023-02-17T04:44:25.064Z,9.68
2023-02-17T04:46:53.274Z,9.74
2023-02-17T04:49:21.223Z,9.68
2023-02-17T04:51:49.210Z,9.76
2023-02-17T04:54:17.145Z,9.69
2023-02-17T04:56:45.043Z,9.78
2023-02-17T04:59:13.343Z,9.74
2023-02-17T05:01:42.748Z,9.80
2023-02-17T05:04:10.691Z,9.64
2023-02-17T05:06:38.632Z,9.71
2023-02-17T05:09:06.544Z,9.83
2023-02-17T05:11:34.501Z,9.79
2023-02-17T05:14:02.544Z,9.70
2023-02-17T05:16:30.434Z,9.64
2023-02-17T05:18:59.748Z,9.76
2023-02-17T05:21:28.143Z,9.76
2023-02-17T05:23:56.066Z,9.68
2023-02-17T05:26:23.909Z,9.74
2023-02-17T05:28:52.210Z,9.72
2023-02-17T05:31:20.271Z,9.77
2023-02-17T05:33:48.241Z,9.75
2023-02-17T05:36:17.893Z,9.63
2023-02-17T05:38:49.174Z,9.67
2023-02-17T05:41:17.153Z,9.82
2023-02-17T05:43:45.320Z,9.83
2023-02-17T05:46:13.253Z,9.73
2023-02-17T05:48:41.391Z,9.69
2023-02-17T05:51:09.943Z,9.58
2023-02-17T05:53:39.183Z,9.59
2023-02-17T05:56:08.167Z,9.79
2023-02-17T05:58:36.288Z,9.83
2023-02-17T06:01:08.317Z,9.74
2023-02-17T06:03:36.264Z,9.72
2023-02-17T06:06:04.881Z,9.84
2023-02-17T06:08:33.072Z,9.81
2023-02-17T06:11:02.375Z,9.66
2023-02-17T06:13:30.801Z,9.71
2023-02-17T06:15:59.095Z,9.61
2023-02-17T06:18:27.006Z,9.57
2023-02-17T06:20:56.138Z,9.67
2023-02-17T06:23:24.569Z,9.67
2023-02-17T06:25:52.465Z,9.72
2023-02-17T06:28:22.006Z,9.73
2023-02-17T06:30:50.278Z,9.69
2023-02-17T06:33:18.216Z,9.70
2023-02-17T06:35:49.613Z,9.88
2023-02-17T06:38:17.904Z,9.89
2023-02-17T06:40:45.846Z,9.96
2023-02-17T06:43:13.721Z,9.86
2023-02-17T06:45:43.093Z,9.89
2023-02-17T06:48:10.971Z,9.85
2023-02-17T06:50:39.253Z,9.86
2023-02-17T06:53:07.999Z,9.87
2023-02-17T06:55:37.394Z,9.84
2023-02-17T06:58:05.360Z,9.81
2023-02-17T07:00:33.278Z,10.00
2023-02-17T07:03:02.807Z,9.97
2023-02-17T07:05:30.844Z,9.98
2023-02-17T07:07:58.850Z,9.84
2023-02-17T07:10:26.850Z,9.83
2023-02-17T07:12:55.068Z,9.85
2023-02-17T07:15:22.975Z,9.83
2023-02-17T07:17:51.002Z,9.83
2023-02-17T07:20:20.467Z,9.85
2023-02-17T07:22:48.418Z,9.91
2023-02-17T07:25:16.399Z,9.90
2023-02-17T07:27:44.641Z,9.83
2023-02-17T07:30:13.363Z,9.90
2023-02-17T07:32:41.333Z,9.89
2023-02-17T07:35:09.475Z,9.86
2023-02-17T07:37:38.802Z,9.89
2023-02-17T07:40:08.246Z,9.92
2023-02-17T07:42:36.481Z,9.83
2023-02-17T07:45:04.679Z,9.92
2023-02-17T07:47:33.599Z,9.86
2023-02-17T07:50:01.512Z,9.97
2023-02-17T07:52:29.418Z,9.89
2023-02-17T07:54:58.721Z,9.92
2023-02-17T07:57:26.794Z,10.00
2023-02-17T07:59:54.982Z,9.92
2023-02-17T08:02:23.033Z,9.89
2023-02-17T08:04:51.160Z,10.04
2023-02-17T08:07:19.293Z,9.93
2023-02-17T08:10:10.204Z,9.93
2023-02-17T08:12:58.056Z,9.90
2023-02-17T08:15:26.108Z,9.95
2023-02-17T08:17:54.087Z,10.02
2023-02-17T08:20:21.957Z,10.06
2023-02-17T08:22:49.799Z,10.07
2023-02-17T08:25:19.032Z,10.15
2023-02-17T08:27:48.413Z,10.17
2023-02-17T08:30:16.708Z,10.16
2023-02-17T08:32:47.447Z,10.13
2023-02-17T08:35:15.521Z,10.17
2023-02-17T08:37:43.421Z,10.18
2023-02-17T08:40:11.646Z,10.24
2023-02-17T08:42:39.920Z,10.24
2023-02-17T08:45:09.500Z,10.26
2023-02-17T08:47:37.645Z,10.18
2023-02-17T08:50:06.376Z,10.31
2023-02-17T08:52:35.558Z,10.33
2023-02-17T08:55:03.529Z,10.34
2023-02-17T08:57:31.434Z,10.32
2023-02-17T08:59:59.672Z,10.48
2023-02-17T09:02:28.952Z,10.52
2023-02-17T09:04:56.992Z,10.48
2023-02-17T09:07:25.191Z,10.47
2023-02-17T09:09:53.150Z,10.39
2023-02-17T09:12:21.097Z,10.49
2023-02-17T09:14:49.128Z,10.55
2023-02-17T09:17:17.084Z,10.66
2023-02-17T09:19:46.489Z,10.71
2023-02-17T09:22:30.543Z,10.59
2023-02-17T09:24:59.544Z,10.75
2023-02-17T09:27:27.929Z,10.73
2023-02-17T09:29:56.014Z,10.93
2023-02-17T09:32:24.156Z,10.95
2023-02-17T09:34:54.359Z,10.96
2023-02-17T09:37:23.116Z,11.09
2023-02-17T09:39:51.067Z,11.09
2023-02-17T09:42:20.203Z,11.09
2023-02-17T09:44:49.933Z,11.09
2023-02-17T09:47:20.375Z,11.19
2023-02-17T09:49:49.650Z,11.19
2023-02-17T09:52:21.448Z,11.34
2023-02-17T09:54:54.710Z,11.20
2023-02-17T09:57:23.279Z,11.31
2023-02-17T09:59:53.421Z,11.37
2023-02-17T10:02:26.354Z,11.42
2023-02-17T10:04:54.368Z,11.50
2023-02-17T10:07:26.916Z,11.53
2023-02-17T10:09:56.600Z,11.50
2023-02-17T10:12:26.068Z,11.54
2023-02-17T10:14:56.711Z,11.73
2023-02-17T10:17:28.149Z,11.60
2023-02-17T10:19:58.194Z,11.70
2023-02-17T10:22:27.843Z,11.66
2023-02-17T10:24:55.767Z,11.72
2023-02-17T10:27:31.469Z,11.77
2023-02-17T10:30:06.354Z,11.73
2023-02-17T10:32:49.573Z,11.83
2023-02-17T10:35:18.270Z,11.91
2023-02-17T10:37:50.898Z,12.08
2023-02-17T10:40:21.461Z,12.08
2023-02-17T10:42:50.864Z,12.04
2023-02-17T10:45:25.317Z,11.99
2023-02-17T10:47:54.585Z,12.01
2023-02-17T10:50:23.249Z,12.18
2023-02-17T10:53:00.124Z,12.18
2023-02-17T10:55:38.045Z,12.40
2023-02-17T10:58:11.415Z,12.25
2023-02-17T11:00:47.737Z,12.22
2023-02-17T11:03:22.346Z,12.38
2023-02-17T11:05:55.234Z,12.22
2023-02-17T11:08:31.512Z,12.22
2023-02-17T11:11:04.664Z,12.11
2023-02-17T11:13:35.490Z,12.20
2023-02-17T11:16:03.473Z,12.24
2023-02-17T11:18:33.523Z,12.23
2023-02-17T11:21:03.092Z,12.45
2023-02-17T11:23:32.576Z,12.49
2023-02-17T11:26:03.045Z,12.68
2023-02-17T11:28:31.365Z,12.75
2023-02-17T11:31:00.406Z,12.57
2023-02-17T11:33:31.890Z,12.67
2023-02-17T11:35:59.892Z,12.82
2023-02-17T11:38:28.484Z,12.70
2023-02-17T11:40:59.358Z,12.78
2023-02-17T11:43:28.626Z,12.85
2023-02-17T11:46:02.052Z,12.74
2023-02-17T11:48:45.797Z,12.68
2023-02-17T11:51:15.966Z,12.83
2023-02-17T11:53:50.440Z,12.82
2023-02-17T11:56:20.625Z,12.95
2023-02-17T11:59:19.920Z,12.95
2023-02-17T12:02:03.204Z,13.04
2023-02-17T12:04:31.319Z,12.96
2023-02-17T12:07:30.139Z,13.22
2023-02-17T12:10:02.830Z,13.17
2023-02-17T12:12:52.458Z,13.16
2023-02-17T12:15:35.843Z,13.26
2023-02-17T12:18:10.074Z,13.29
2023-02-17T12:20:45.644Z,13.31
2023-02-17T12:23:31.251Z,13.22
2023-02-17T12:26:07.349Z,13.22
2023-02-17T12:28:53.970Z,13.07
2023-02-17T12:31:28.872Z,12.92
2023-02-17T12:33:59.186Z,12.93
2023-02-17T12:36:30.222Z,13.19
2023-02-17T12:39:00.169Z,13.09
2023-02-17T12:41:28.699Z,13.04
2023-02-17T12:44:07.235Z,12.98
2023-02-17T12:46:43.848Z,12.99
2023-02-17T12:49:15.813Z,13.15
2023-02-17T12:51:45.684Z,12.97
2023-02-17T12:54:16.785Z,13.06
2023-02-17T12:56:57.043Z,12.96
2023-02-17T12:59:28.675Z,12.95
2023-02-17T13:01:58.748Z,13.07
2023-02-17T13:04:26.702Z,12.99
2023-02-17T13:06:59.117Z,12.98
2023-02-17T13:09:31.155Z,13.04
2023-02-17T13:12:10.147Z,12.98
2023-02-17T13:14:47.057Z,12.92
2023-02-17T13:17:27.054Z,12.88
2023-02-17T13:20:07.352Z,12.87
2023-02-17T13:22:35.276Z,12.98
2023-02-17T13:25:03.256Z,12.96
2023-02-17T13:27:35.217Z,13.01
2023-02-17T13:30:05.584Z,13.00
2023-02-17T13:32:34.402Z,12.88
2023-02-17T13:35:06.083Z,12.85
2023-02-17T13:37:42.416Z,12.71
2023-02-17T13:40:35.591Z,12.91
2023-02-17T13:43:10.317Z,12.89
2023-02-17T13:45:42.588Z,12.86
2023-02-17T13:48:15.911Z,13.00
2023-02-17T13:50:47.843Z,12.91
2023-02-17T13:53:24.584Z,12.93
2023-02-17T13:55:52.742Z,12.85
2023-02-17T13:58:24.358Z,12.97
2023-02-17T14:00:53.870Z,12.87
2023-02-17T14:03:23.142Z,12.98
2023-02-17T14:05:52.267Z,12.96
2023-02-17T14:08:24.297Z,12.84
2023-02-17T14:10:52.975Z,13.04
2023-02-17T14:13:21.276Z,12.85
2023-02-17T14:15:55.227Z,12.87
2023-02-17T14:18:30.365Z,12.89
2023-02-17T14:21:06.070Z,12.79
2023-02-17T14:23:48.090Z,12.68
2023-02-17T14:26:28.525Z,12.61
2023-02-17T14:28:57.618Z,12.85
2023-02-17T14:31:27.082Z,12.77
2023-02-17T14:33:56.607Z,12.96
2023-02-17T14:36:33.153Z,12.83
2023-02-17T14:39:01.252Z,12.98
2023-02-17T14:41:29.352Z,12.88
2023-02-17T14:43:57.607Z,12.82
2023-02-17T14:46:27.088Z,12.82
2023-02-17T14:48:55.170Z,12.57
2023-02-17T14:51:24.201Z,12.62
2023-02-17T14:53:52.454Z,12.59
2023-02-17T14:56:24.249Z,12.64
2023-02-17T14:58:53.136Z,12.58
2023-02-17T15:01:21.805Z,12.42
2023-02-17T15:03:52.524Z,12.52
2023-02-17T15:06:22.251Z,12.60
2023-02-17T15:08:50.390Z,12.46
2023-02-17T15:11:20.727Z,12.38
2023-02-17T15:13:48.767Z,12.49
2023-02-17T15:16:17.415Z,12.44
2023-02-17T15:18:45.417Z,12.45
2023-02-17T15:21:21.171Z,12.52
2023-02-17T15:23:49.553Z,12.48
2023-02-17T15:26:17.743Z,12.38
2023-02-17T15:28:45.741Z,12.33
2023-02-17T15:31:15.604Z,12.23
2023-02-17T15:33:43.829Z,12.23
2023-02-17T15:36:13.811Z,12.15
2023-02-17T15:38:43.533Z,12.12
2023-02-17T15:41:15.693Z,12.06
2023-02-17T15:43:43.734Z,11.96
2023-02-17T15:46:13.483Z,11.96
2023-02-17T15:48:41.511Z,11.94
2023-02-17T15:51:12.213Z,11.83
2023-02-17T15:53:40.629Z,11.71
2023-02-17T15:56:13.720Z,11.62
2023-02-17T15:58:41.727Z,11.68
2023-02-17T16:01:13.918Z,11.52
2023-02-17T16:03:41.902Z,11.47
2023-02-17T16:06:09.909Z,11.46
2023-02-17T16:08:39.954Z,11.42
2023-02-17T16:11:10.652Z,11.55
2023-02-17T16:13:40.629Z,11.38
2023-02-17T16:16:10.739Z,11.29
2023-02-17T16:18:38.736Z,11.17
2023-02-17T16:21:07.626Z,11.23
2023-02-17T16:23:36.092Z,11.14
2023-02-17T16:26:04.311Z,11.14
2023-02-17T16:28:32.713Z,11.09
2023-02-17T16:31:02.121Z,11.00
2023-02-17T16:33:30.112Z,11.04
2023-02-17T16:35:58.124Z,11.07
2023-02-17T16:38:26.118Z,11.10
2023-02-17T16:40:54.906Z,11.23
2023-02-17T16:43:24.052Z,11.14
2023-02-17T16:45:53.773Z,11.06
2023-02-17T16:48:23.974Z,11.09
2023-02-17T16:50:52.133Z,11.03
2023-02-17T16:53:20.165Z,11.09
2023-02-17T16:55:48.167Z,11.13
2023-02-17T16:58:17.068Z,11.03
2023-02-17T17:00:45.215Z,10.97
2023-02-17T17:03:13.237Z,11.04
2023-02-17T17:05:43.396Z,11.03
2023-02-17T17:08:14.312Z,11.00
2023-02-17T17:10:42.240Z,11.01
2023-02-17T17:13:10.685Z,11.09
2023-02-17T17:15:38.725Z,11.07
2023-02-17T17:18:08.776Z,11.13
2023-02-17T17:20:37.506Z,11.21
2023-02-17T17:23:08.251Z,11.13
2023-02-17T17:25:36.816Z,11.21
2023-02-17T17:28:13.698Z,11.00
2023-02-17T17:30:42.186Z,11.10
2023-02-17T17:33:10.127Z,11.08
2023-02-17T17:35:38.231Z,11.12
2023-02-17T17:38:08.222Z,11.10
2023-02-17T17:40:48.461Z,11.13
2023-02-17T17:43:16.985Z,11.18
2023-02-17T17:45:45.270Z,11.14
2023-02-17T17:48:14.168Z,11.06
2023-02-17T17:50:42.262Z,11.09
2023-02-17T17:53:11.979Z,11.06
2023-02-17T17:55:39.948Z,11.13
2023-02-17T17:58:07.944Z,11.01
2023-02-17T18:00:36.260Z,11.02
2023-02-17T18:03:05.167Z,11.06
2023-02-17T18:05:33.188Z,10.88
2023-02-17T18:08:01.573Z,10.95
2023-02-17T18:10:30.922Z,10.80
2023-02-17T18:12:58.895Z,10.99
2023-02-17T18:15:26.874Z,10.90
2023-02-17T18:17:54.899Z,10.92
2023-02-17T18:20:23.024Z,10.94
2023-02-17T18:22:51.297Z,10.72
2023-02-17T18:25:19.404Z,10.79
2023-02-17T18:27:48.864Z,10.69
2023-02-17T18:30:17.934Z,10.74
2023-02-17T18:32:46.017Z,10.83
2023-02-17T18:35:14.049Z,10.95
2023-02-17T18:37:42.010Z,10.86
2023-02-17T18:40:12.574Z,10.85
2023-02-17T18:42:40.550Z,10.87
2023-02-17T18:45:10.779Z,10.77
2023-02-17T18:47:38.964Z,10.71
2023-02-17T18:50:08.123Z,10.79
2023-02-17T18:52:37.303Z,10.63
2023-02-17T18:55:05.490Z,10.80
2023-02-17T18:57:33.447Z,10.74
2023-02-17T19:00:01.478Z,10.91
2023-02-17T19:02:31.206Z,10.91
2023-02-17T19:04:59.158Z,10.71
2023-02-17T19:07:27.086Z,10.71
2023-02-17T19:09:55.023Z,10.75
2023-02-17T19:12:22.875Z,10.93
2023-02-17T19:14:55.656Z,10.84
2023-02-17T19:17:24.007Z,10.89
2023-02-17T19:19:53.408Z,10.97
2023-02-17T19:22:21.392Z,10.93
2023-02-17T19:24:51.488Z,10.87
2023-02-17T19:27:19.453Z,10.71
2023-02-17T19:29:47.486Z,10.90
2023-02-17T19:32:15.788Z,10.82
2023-02-17T19:34:43.769Z,10.69
2023-02-17T19:37:13.162Z,10.86
2023-02-17T19:39:41.087Z,10.84
2023-02-17T19:42:09.235Z,10.88
2023-02-17T19:44:37.408Z,10.73
2023-02-17T19:47:05.334Z,10.79
2023-02-17T19:49:33.324Z,10.81
2023-02-17T19:52:01.605Z,10.77
2023-02-17T19:54:30.891Z,10.74
2023-02-17T19:56:58.836Z,10.86
2023-02-17T19:59:27.075Z,10.85
2023-02-17T20:01:55.015Z,10.82
2023-02-17T20:04:23.002Z,10.80
2023-02-17T20:06:52.293Z,10.80
2023-02-17T20:09:21.041Z,10.84
2023-02-17T20:11:52.949Z,10.98
2023-02-17T20:14:21.362Z,10.75
2023-02-17T20:16:49.959Z,10.74
2023-02-17T20:19:17.969Z,10.76
2023-02-17T20:21:46.219Z,10.54
2023-02-17T20:24:15.186Z,10.67
2023-02-17T20:26:44.384Z,10.72
2023-02-17T20:29:13.843Z,10.75
2023-02-17T20:31:41.979Z,10.84
2023-02-17T20:34:15.735Z,10.79
2023-02-17T20:36:43.614Z,10.72
2023-02-17T20:39:12.161Z,10.64
2023-02-17T20:41:40.341Z,10.66
2023-02-17T20:44:08.263Z,10.67
2023-02-17T20:46:37.566Z,10.62
2023-02-17T20:49:05.507Z,10.41
2023-02-17T20:51:33.435Z,10.57
2023-02-17T20:54:01.366Z,10.59
2023-02-17T20:56:33.778Z,10.62
2023-02-17T20:59:01.743Z,10.43
2023-02-17T21:01:29.793Z,10.50
2023-02-17T21:03:59.048Z,10.57
2023-02-17T21:06:28.418Z,10.62
2023-02-17T21:08:57.434Z,10.60
2023-02-17T21:11:25.588Z,10.47
2023-02-17T21:13:53.851Z,10.43
2023-02-17T21:16:27.259Z,10.50
2023-02-17T21:18:55.297Z,10.37
2023-02-17T21:21:24.668Z,10.27
2023-02-17T21:23:53.166Z,10.28
2023-02-17T21:26:21.777Z,10.42
2023-02-17T21:28:50.049Z,10.37
2023-02-17T21:31:18.139Z,10.48
2023-02-17T21:33:46.196Z,10.36
2023-02-17T21:36:14.980Z,10.53
2023-02-17T21:38:44.376Z,10.45
2023-02-17T21:41:13.560Z,10.48
2023-02-17T21:43:59.180Z,10.31
2023-02-17T21:46:27.400Z,10.48
2023-02-17T21:48:56.245Z,10.29
2023-02-17T21:51:24.154Z,10.51
2023-02-17T21:53:53.828Z,10.43
2023-02-17T21:56:22.386Z,10.36
2023-02-17T21:58:51.586Z,10.23
2023-02-17T22:01:19.789Z,10.26
2023-02-17T22:03:50.747Z,10.32
2023-02-17T22:06:20.987Z,10.29
2023-02-17T22:08:48.916Z,10.34
2023-02-17T22:11:19.567Z,10.41
2023-02-17T22:13:47.640Z,10.29
2023-02-17T22:16:16.055Z,10.39
2023-02-17T22:18:43.993Z,10.35
2023-02-17T22:21:12.642Z,10.34
2023-02-17T22:23:40.969Z,10.29
2023-02-17T22:26:09.626Z,10.27
2023-02-17T22:28:39.169Z,10.38
2023-02-17T22:31:07.393Z,10.44
2023-02-17T22:33:35.437Z,10.21
2023-02-17T22:36:05.170Z,10.25
2023-02-17T22:38:34.595Z,10.41
2023-02-17T22:41:06.027Z,10.38
2023-02-17T22:43:33.973Z,10.26
2023-02-17T22:46:03.898Z,10.34
2023-02-17T22:48:33.011Z,10.22
2023-02-17T22:51:05.013Z,10.18
2023-02-17T22:53:33.207Z,10.21
2023-02-17T22:56:01.237Z,10.19
2023-02-17T22:58:29.196Z,10.23
2023-02-17T23:01:05.397Z,10.17
2023-02-17T23:03:33.416Z,10.16
2023-02-17T23:06:01.655Z,9.99
2023-02-17T23:08:30.052Z,10.05
2023-02-17T23:10:58.016Z,9.97
2023-02-17T23:13:26.029Z,10.10
2023-02-17T23:15:54.028Z,10.10
2023-02-17T23:18:23.700Z,10.08
2023-02-17T23:20:58.258Z,10.16
2023-02-17T23:23:27.014Z,10.04
2023-02-17T23:25:55.829Z,10.05
2023-02-17T23:28:24.792Z,10.18
2023-02-17T23:30:52.819Z,10.02
2023-02-17T23:33:21.653Z,10.10
2023-02-17T23:35:51.027Z,10.06
2023-02-17T23:38:20.858Z,9.93
2023-02-17T23:40:49.752Z,10.16
2023-02-17T23:43:17.891Z,10.21
2023-02-17T23:45:45.904Z,10.00
2023-02-17T23:48:14.028Z,10.19
2023-02-17T23:50:41.987Z,10.06
2023-02-17T23:53:11.380Z,10.06
2023-02-17T23:55:39.606Z,10.02
2023-02-17T23:58:07.601Z,10.06
